Time;durP1;ratioP1;P1;durP2;ratioP2;P2;SDS_P1;SDS_P2;PMS_P1;PMS_P2;Temp;Humidity;BMP_temperature;BMP_pressure;BME280_temperature;BME280_humidity;BME280_pressure;Samples;Min_cycle;Max_cycle;Signal;HPM_P1;HPM_P2
2021/04/28 00:02:15;;;;;;;;;;;7.90;89.10;;;6.78;66.65;94619.09;10466102;28;1867;-83
2021/04/28 00:07:17;;;;;;;;;;;7.90;89.50;;;6.67;66.59;94614.88;10461881;28;2328;-84
2021/04/28 00:12:18;;;;;;;;;;;7.80;89.70;;;6.67;66.70;94612.22;10460428;28;1816;-84
2021/04/28 00:17:20;;;;;;;;;;;8.40;90.40;;;6.53;67.48;94613.91;10446443;28;2292;-86
2021/04/28 00:22:22;;;;;;;;;;;7.60;90.20;;;6.37;67.93;94608.66;10469101;28;2225;-84
2021/04/28 00:27:24;;;;;;;;;;;7.60;90.70;;;6.45;67.75;94597.41;10468935;28;2090;-85
2021/04/28 00:32:35;;;;;;;;;;;7.50;91.20;;;6.42;68.09;94599.81;10448587;28;1848;-84
2021/04/28 00:37:37;;;;;;;;;;;9.00;92.00;;;6.23;68.22;94604.97;10459370;28;1962;-84
2021/04/28 00:42:39;;;;;;;;;;;8.10;91.60;;;6.29;68.60;94597.75;10460724;28;1996;-84
2021/04/28 00:47:40;;;;;;;;;;;7.30;91.90;;;6.41;67.88;94596.34;10449134;28;1901;-86
2021/04/28 00:52:42;;;;;;;;;;;7.40;91.90;;;6.38;68.05;94599.59;10447819;28;2106;-83
2021/04/28 00:57:44;;;;;;;;;;;7.40;92.10;;;6.17;68.53;94603.41;10439112;28;1955;-86
2021/04/28 01:02:46;;;;;;;;;;;7.30;92.00;;;6.15;69.15;94598.34;10452330;28;2096;-85
2021/04/28 01:07:51;;;;;;;;;;;8.60;93.10;;;6.07;69.72;94606.13;10440401;28;3285;-85
2021/04/28 01:12:53;;;;;;;;;;;7.20;92.80;;;6.01;69.36;94597.34;10445210;28;2236;-86
2021/04/28 01:17:54;;;;;;;;;;;7.10;92.90;;;6.07;68.91;94590.13;10464782;28;2075;-85
2021/04/28 01:22:56;;;;;;;;;;;7.10;93.20;;;6.06;69.22;94594.66;10458500;28;2359;-85
2021/04/28 01:28:02;;;;;;;;;;;7.10;93.30;;;6.02;69.53;94593.63;10448267;28;2127;-84
2021/04/28 01:33:04;;;;;;;;;;;7.10;93.60;;;5.91;69.89;94595.50;10438179;28;2037;-84
2021/04/28 01:38:07;;;;;;;;;;;8.50;94.50;;;5.81;70.19;94598.19;10452785;28;2175;-85
2021/04/28 01:43:09;;;;;;;;;;;7.50;94.30;;;5.87;70.12;94594.44;10439449;28;2201;-85
2021/04/28 01:48:10;;;;;;;;;;;6.90;94.40;;;5.82;70.19;94591.78;10441229;28;1743;-84
2021/04/28 01:53:12;;;;;;;;;;;7.60;94.70;;;5.82;70.24;94599.78;10460860;28;2142;-84
2021/04/28 01:58:14;;;;;;;;;;;6.90;94.50;;;5.84;70.25;94596.84;10449851;28;2039;-86
2021/04/28 02:03:16;;;;;;;;;;;6.90;94.70;;;5.75;70.55;94596.63;10464113;28;2292;-84
2021/04/28 02:08:18;;;;;;;;;;;6.80;94.70;;;5.65;71.04;94600.09;10465313;28;2400;-85
2021/04/28 02:13:20;;;;;;;;;;;7.80;95.60;;;5.68;71.10;94588.13;10460291;28;2246;-86
2021/04/28 02:18:22;;;;;;;;;;;6.70;95.50;;;5.62;71.16;94584.66;10470694;28;2305;-85
2021/04/28 02:23:24;;;;;;;;;;;6.60;95.60;;;5.46;72.23;94588.41;10488552;28;2058;-85
2021/04/28 02:28:25;;;;;;;;;;;7.10;96.10;;;5.38;72.33;94587.13;10483778;28;1933;-86
2021/04/28 02:33:27;;;;;;;;;;;6.50;96.30;;;5.38;72.62;94584.44;10500591;28;2011;-86
2021/04/28 02:38:29;;;;;;;;;;;6.40;96.70;;;5.27;72.78;94577.53;10458084;28;2203;-86
2021/04/28 02:43:31;;;;;;;;;;;7.30;97.40;;;5.20;73.78;94578.88;10458916;28;2234;-86
2021/04/28 02:48:32;;;;;;;;;;;6.30;97.60;;;5.17;73.65;94577.56;10479506;28;2452;-86
2021/04/28 02:53:34;;;;;;;;;;;6.30;97.80;;;5.24;73.72;94575.41;10486985;28;2327;-86
2021/04/28 02:58:36;;;;;;;;;;;6.30;98.00;;;5.18;73.55;94579.16;10472923;28;2102;-85
2021/04/28 03:03:38;;;;;;;;;;;6.40;98.20;;;5.10;74.18;94569.84;10485239;28;2221;-85
2021/04/28 03:08:41;;;;;;;;;;;6.20;98.50;;;5.09;73.96;94578.09;10479382;28;2137;-83
2021/04/28 03:13:43;;;;;;;;;;;6.30;98.90;;;5.09;74.40;94564.78;10478479;28;2478;-83
2021/04/28 03:18:45;;;;;;;;;;;6.60;99.50;;;5.13;74.12;94566.63;10461353;28;2499;-83
2021/04/28 03:23:47;;;;;;;;;;;7.90;99.90;;;5.02;74.68;94575.69;10456077;28;2464;-83
2021/04/28 03:28:50;;;;;;;;;;;6.10;99.50;;;4.94;75.23;94570.91;10456448;28;2340;-85
2021/04/28 03:33:52;;;;;;;;;;;6.30;99.90;;;4.87;75.45;94575.72;10447791;28;1598;-82
2021/04/28 03:38:54;;;;;;;;;;;6.00;99.90;;;4.94;75.23;94572.78;10442500;28;2300;-80
2021/04/28 03:43:56;;;;;;;;;;;7.10;99.90;;;4.98;74.79;94579.97;10473544;28;1915;-83
2021/04/28 03:48:58;;;;;;;;;;;6.00;99.90;;;4.95;75.47;94577.03;10463689;28;2107;-85
2021/04/28 03:54:00;;;;;;;;;;;6.80;99.90;;;4.88;75.41;94580.75;10447287;28;1820;-81
2021/04/28 03:59:01;;;;;;;;;;;7.60;99.90;;;4.81;75.77;94571.44;10435543;28;1982;-82
2021/04/28 04:04:03;;;;;;;;;;;6.00;99.90;;;4.79;75.51;94571.72;10447926;28;2091;-81
2021/04/28 04:09:26;;;;;;;;;;;7.00;99.90;;;4.75;75.89;94580.50;10460830;28;1968;-84
2021/04/28 04:14:29;;;;;;;;;;;5.90;99.90;;;4.77;76.27;94584.50;10444837;28;2157;-84
2021/04/28 04:19:31;;;;;;;;;;;5.90;99.90;;;4.94;75.69;94578.09;10446894;28;2139;-85
2021/04/28 04:24:33;;;;;;;;;;;6.40;99.90;;;5.15;74.69;94579.69;10461622;28;2157;-85
2021/04/28 04:29:35;;;;;;;;;;;6.00;99.90;;;5.37;73.82;94577.53;10473350;28;1915;-86
2021/04/28 04:34:37;;;;;;;;;;;6.50;99.90;;;5.65;72.39;94577.97;10445824;28;1990;-84
2021/04/28 04:39:39;;;;;;;;;;;6.50;99.90;;;5.88;71.60;94588.03;10468847;28;1914;-85
2021/04/28 04:44:41;;;;;;;;;;;6.70;99.90;;;6.25;70.18;94570.03;10448886;28;2027;-84
2021/04/28 04:49:43;;;;;;;;;;;7.80;99.30;;;6.52;69.25;94578.41;10454556;28;2113;-83
2021/04/28 04:54:45;;;;;;;;;;;7.30;97.70;;;6.80;67.86;94586.75;10431555;28;2141;-83
2021/04/28 04:59:47;;;;;;;;;;;8.90;97.30;;;7.13;66.66;94577.97;10429403;28;2305;-82
2021/04/28 05:04:49;;;;;;;;;;;8.90;96.10;;;7.36;65.50;94575.59;10436703;28;2433;-86
2021/04/28 05:09:50;;;;;;;;;;;8.20;94.20;;;7.54;64.12;94570.31;10450757;28;2125;-85
2021/04/28 05:14:52;;;;;;;;;;;9.60;93.60;;;8.12;62.43;94570.19;10453625;28;2093;-85
2021/04/28 05:19:54;;;;;;;;;;;8.70;92.60;;;8.38;61.21;94577.94;10435580;28;2225;-82
2021/04/28 05:24:56;;;;;;;;;;;10.60;91.30;;;9.03;59.64;94579.91;10460288;28;2126;-82
2021/04/28 05:29:58;;;;;;;;;;;9.70;89.20;;;9.11;59.24;94582.75;10453331;28;2043;-84
2021/04/28 05:34:59;;;;;;;;;;;10.70;88.00;;;9.14;58.67;94578.66;10485851;28;1988;-84
2021/04/28 05:40:01;;;;;;;;;;;10.10;86.60;;;9.35;57.81;94584.47;10473910;28;2224;-85
2021/04/28 05:45:03;;;;;;;;;;;10.20;85.80;;;9.34;58.00;94578.31;10461419;28;2082;-84
2021/04/28 05:50:05;;;;;;;;;;;10.20;85.70;;;8.97;59.81;94581.91;10488137;28;2082;-85
2021/04/28 05:55:07;;;;;;;;;;;10.10;86.30;;;9.01;59.42;94580.22;10472454;28;2092;-84
2021/04/28 06:00:08;;;;;;;;;;;10.00;86.90;;;9.40;58.91;94568.31;10461207;28;2063;-82
2021/04/28 06:05:10;;;;;;;;;;;10.20;86.70;;;9.66;57.51;94561.38;10469550;28;2137;-85
2021/04/28 06:10:12;;;;;;;;;;;10.50;86.10;;;9.74;57.97;94560.72;10470335;28;2094;-85
2021/04/28 06:15:14;;;;;;;;;;;10.60;85.90;;;9.70;57.45;94565.06;10472573;28;1943;-85
2021/04/28 06:20:16;;;;;;;;;;;10.60;85.40;;;9.62;58.01;94571.13;10500779;28;2003;-86
2021/04/28 06:25:19;;;;;;;;;;;10.60;85.60;;;9.80;57.98;94565.97;10481249;28;2118;-83
2021/04/28 06:30:21;;;;;;;;;;;10.60;85.70;;;9.72;58.46;94562.88;10459239;28;2094;-84
2021/04/28 06:35:24;;;;;;;;;;;10.70;85.70;;;9.94;57.46;94564.09;10482198;28;2208;-85
2021/04/28 06:40:26;;;;;;;;;;;10.70;85.50;;;10.11;56.96;94569.63;10460875;28;2070;-83
2021/04/28 06:45:31;;;;;;;;;;;11.00;84.60;;;10.49;55.67;94570.22;10461771;28;2173;-84
2021/04/28 06:50:35;;;;;;;;;;;11.20;84.20;;;10.97;54.38;94567.00;10478465;28;2193;-85
2021/04/28 06:55:42;;;;;;;;;;;11.70;83.10;;;11.26;53.24;94566.56;10468091;28;1982;-83
2021/04/28 07:00:44;;;;;;;;;;;12.00;81.80;;;11.38;52.98;94564.09;10486114;28;1961;-83
2021/04/28 07:05:46;;;;;;;;;;;12.30;81.10;;;11.40;52.62;94571.88;10460923;28;2292;-85
2021/04/28 07:10:48;;;;;;;;;;;12.50;80.20;;;12.15;51.73;94570.16;10470588;28;1901;-83
2021/04/28 07:15:56;;;;;;;;;;;12.70;80.30;;;12.01;51.32;94574.88;10468575;28;1856;-83
2021/04/28 07:20:58;;;;;;;;;;;13.00;79.30;;;12.90;49.54;94571.72;10467439;28;1918;-85
2021/04/28 07:26:00;;;;;;;;;;;13.50;78.50;;;13.27;48.99;94584.91;10476729;28;1895;-87
2021/04/28 07:31:04;;;;;;;;;;;14.00;77.30;;;13.35;47.88;94579.50;10450739;28;1810;-83
2021/04/28 07:36:06;;;;;;;;;;;14.30;75.80;;;13.22;48.95;94580.47;10449992;28;2027;-84
2021/04/28 07:41:11;;;;;;;;;;;14.20;75.50;;;13.14;48.96;94568.56;10476975;28;1980;-83
2021/04/28 07:46:28;;;;;;;;;;;14.30;75.50;;;13.57;47.44;94580.44;10458104;28;2027;-83
2021/04/28 07:51:33;;;;;;;;;;;14.50;74.70;;;13.68;47.95;94579.00;10467203;28;1933;-84
2021/04/28 07:56:45;;;;;;;;;;;14.40;75.20;;;13.48;47.94;94585.84;10459114;28;2069;-85
2021/04/28 08:01:48;;;;;;;;;;;14.60;74.70;;;13.18;48.55;94584.91;10457022;28;2006;-87
2021/04/28 08:06:52;;;;;;;;;;;14.30;75.50;;;13.18;49.18;94584.91;10460435;28;2067;-87
2021/04/28 08:11:56;;;;;;;;;;;14.20;75.60;;;13.18;49.19;94582.22;10445531;28;2065;-86
2021/04/28 08:17:00;;;;;;;;;;;14.20;75.90;;;13.33;49.60;94580.94;10445724;28;1906;-85
2021/04/28 08:22:03;;;;;;;;;;;14.20;76.20;;;13.77;47.85;94577.84;10462495;28;2346;-86
2021/04/28 08:27:06;;;;;;;;;;;14.60;75.40;;;13.74;47.82;94574.97;10463405;28;2035;-84
2021/04/28 08:32:09;;;;;;;;;;;14.80;74.60;;;14.36;46.24;94573.63;10463964;28;2073;-84
2021/04/28 08:37:16;;;;;;;;;;;15.10;74.00;;;14.78;45.38;94569.09;10456797;28;1957;-85
2021/04/28 08:42:40;;;;;;;;;;;15.60;72.70;;;15.10;44.58;94571.09;10436914;28;1469;-86
2021/04/28 08:47:45;;;;;;;;;;;15.90;72.40;;;14.30;46.18;94576.50;10453927;28;1912;-86
2021/04/28 08:52:47;;;;;;;;;;;15.80;71.50;;;14.79;45.80;94568.78;10481822;28;1696;-87
2021/04/28 08:57:50;;;;;;;;;;;15.80;72.00;;;15.10;44.62;94571.09;10461355;28;2099;-87
2021/04/28 09:02:54;;;;;;;;;;;16.00;71.60;;;15.03;44.33;94567.31;10457626;28;2309;-86
2021/04/28 09:07:57;;;;;;;;;;;16.30;70.20;;;15.16;44.40;94562.75;10455961;28;1999;-84
2021/04/28 09:13:01;;;;;;;;;;;16.20;70.60;;;15.26;44.14;94556.94;10458663;28;2078;-86
2021/04/28 09:23:53;;;;;;;;;;;16.30;70.90;;;14.90;44.38;94561.06;11112677;22;2101;-86
2021/04/28 09:29:02;;;;;;;;;;;16.10;70.00;;;15.17;44.17;94554.31;10349759;28;2131;-85
2021/04/28 09:34:05;;;;;;;;;;;16.20;70.00;;;15.34;43.83;94556.88;10306632;28;2164;-87
2021/04/28 09:39:08;;;;;;;;;;;16.50;69.50;;;15.65;41.64;94542.88;10289386;28;1959;-86
2021/04/28 09:44:10;;;;;;;;;;;16.70;68.20;;;15.94;41.84;94528.34;10289252;28;2090;-87
2021/04/28 09:49:12;;;;;;;;;;;16.90;68.30;;;15.99;39.70;94534.69;10291346;28;1962;-85
2021/04/28 09:54:15;;;;;;;;;;;17.10;65.30;;;16.32;39.69;94537.28;10319430;28;2047;-84
2021/04/28 09:59:17;;;;;;;;;;;17.20;66.00;;;16.10;40.02;94543.97;10308588;28;2049;-86
2021/04/28 10:04:20;;;;;;;;;;;17.20;65.40;;;16.29;39.50;94527.94;10307095;28;1789;-86
2021/04/28 10:09:22;;;;;;;;;;;17.30;65.30;;;16.51;39.33;94523.16;10287678;28;2058;-86
2021/04/28 10:14:24;;;;;;;;;;;17.60;64.80;;;16.08;38.47;94525.31;10278866;28;2107;-86
2021/04/28 10:19:27;;;;;;;;;;;17.40;63.50;;;16.24;37.27;94524.66;10299602;28;1967;-87
2021/04/28 10:24:34;;;;;;;;;;;17.40;62.00;;;16.05;37.05;94527.91;10305720;28;1741;-87
2021/04/28 10:35:17;;;;;;;;;;;17.40;63.20;;;16.49;36.24;94512.66;10271393;28;2065;-86
2021/04/28 10:40:20;;;;;;;;;;;17.50;60.70;;;16.85;36.92;94511.78;10319113;28;1984;-85
2021/04/28 10:45:22;;;;;;;;;;;17.80;61.90;;;17.28;36.39;94513.78;10318344;28;1825;-87
2021/04/28 10:55:49;;;;;;;;;;;18.30;59.50;;;16.83;35.20;94491.56;10306163;28;1936;-85
2021/04/28 11:00:58;;;;;;;;;;;18.00;59.70;;;17.31;32.09;94500.66;10316519;28;1999;-87
2021/04/28 11:11:28;;;;;;;;;;;18.70;56.00;;;17.67;30.11;94497.72;10332958;28;2035;-89
2021/04/28 11:16:38;;;;;;;;;;;19.00;53.10;;;17.69;30.92;94484.59;10312682;28;1899;-85
2021/04/28 11:21:59;;;;;;;;;;;18.70;54.40;;;17.73;29.56;94485.50;10314754;28;2007;-88
2021/04/28 11:27:21;;;;;;;;;;;18.70;53.20;;;17.95;28.84;94481.38;10323659;28;1981;-83
2021/04/28 11:32:27;;;;;;;;;;;18.90;52.20;;;17.80;27.86;94480.22;10306725;28;1926;-85
2021/04/28 11:37:31;;;;;;;;;;;18.80;50.90;;;17.60;28.83;94481.25;10305952;28;2007;-87
2021/04/28 11:42:37;;;;;;;;;;;18.80;51.40;;;17.66;28.96;94479.06;10307955;28;2121;-87
2021/04/28 11:47:41;;;;;;;;;;;18.70;51.60;;;17.75;30.05;94475.09;10306900;28;2046;-87
2021/04/28 11:52:44;;;;;;;;;;;18.80;52.60;;;17.77;29.11;94478.22;10298099;28;2048;-85
2021/04/28 11:57:47;;;;;;;;;;;18.80;51.80;;;18.15;29.48;94467.88;10296432;28;1902;-82
2021/04/28 12:02:49;;;;;;;;;;;19.00;52.70;;;18.23;28.44;94470.38;10299868;28;2004;-84
2021/04/28 12:07:51;;;;;;;;;;;19.30;51.30;;;18.33;28.37;94474.50;10295851;28;2428;-84
2021/04/28 12:12:54;;;;;;;;;;;19.40;50.70;;;18.40;27.75;94466.50;10318078;28;1916;-85
2021/04/28 12:17:58;;;;;;;;;;;19.50;50.30;;;18.60;28.18;94461.88;10311974;28;1957;-86
2021/04/28 12:23:00;;;;;;;;;;;19.60;50.70;;;18.73;27.50;94457.91;10300185;28;1946;-85
2021/04/28 12:28:02;;;;;;;;;;;19.80;50.10;;;18.89;27.83;94450.47;10330480;28;1996;-83
2021/04/28 12:33:04;;;;;;;;;;;20.00;50.00;;;19.10;27.29;94450.09;10324616;28;1793;-84
2021/04/28 12:38:09;;;;;;;;;;;20.00;49.70;;;19.12;26.85;94441.56;10316361;28;2111;-84
2021/04/28 12:43:10;;;;;;;;;;;20.10;49.20;;;19.40;26.95;94444.84;10335836;28;1862;-84
2021/04/28 12:48:33;;;;;;;;;;;20.50;49.40;;;19.70;26.61;94436.03;10334734;28;1209;-86
2021/04/28 12:53:35;;;;;;;;;;;20.60;49.30;;;20.08;26.02;94424.16;10315964;28;1697;-85
2021/04/28 12:58:37;;;;;;;;;;;20.90;48.40;;;19.94;26.58;94419.28;10340958;28;1954;-87
2021/04/28 13:03:39;;;;;;;;;;;21.00;48.40;;;19.68;26.77;94432.88;10330679;28;1704;-85
2021/04/28 13:08:41;;;;;;;;;;;21.00;48.10;;;20.46;26.12;94412.28;10325463;28;2023;-85
2021/04/28 13:13:44;;;;;;;;;;;21.10;48.50;;;20.00;26.41;94416.25;10299669;28;2130;-86
2021/04/28 13:18:47;;;;;;;;;;;21.10;47.90;;;19.52;26.74;94415.81;10307170;28;1979;-84
2021/04/28 13:23:49;;;;;;;;;;;20.70;48.20;;;19.63;26.86;94403.97;10288831;28;1816;-87
2021/04/28 13:28:52;;;;;;;;;;;20.40;48.80;;;19.61;27.45;94405.50;10274763;28;1902;-85
2021/04/28 13:33:56;;;;;;;;;;;20.50;49.30;;;19.59;27.11;94410.50;10281337;28;1829;-84
2021/04/28 13:38:59;;;;;;;;;;;20.50;49.10;;;19.82;27.72;94400.41;10298974;28;1973;-80
2021/04/28 13:44:00;;;;;;;;;;;20.50;49.50;;;20.45;26.63;94388.88;10297232;28;2396;-79
2021/04/28 13:49:02;;;;;;;;;;;21.00;49.10;;;21.08;25.07;94391.97;10292896;28;1995;-79
2021/04/28 13:54:04;;;;;;;;;;;21.40;48.00;;;21.03;25.09;94385.66;10299095;28;2019;-80
2021/04/28 13:59:05;;;;;;;;;;;21.70;47.40;;;20.71;25.78;94381.78;10305929;28;1924;-80
2021/04/28 14:04:07;;;;;;;;;;;21.50;47.70;;;20.60;26.10;94378.13;10307918;28;1980;-79
2021/04/28 14:09:09;;;;;;;;;;;21.40;47.60;;;21.08;25.22;94378.31;10315154;28;2031;-80
2021/04/28 14:14:11;;;;;;;;;;;21.60;47.40;;;20.87;25.81;94371.47;10303682;28;2045;-80
2021/04/28 14:19:12;;;;;;;;;;;21.70;47.30;;;21.95;23.81;94365.84;10309107;28;1983;-80
2021/04/28 14:24:14;;;;;;;;;;;22.30;46.40;;;21.51;24.13;94365.88;10302886;28;2018;-79
2021/04/28 14:29:16;;;;;;;;;;;22.60;45.50;;;21.03;24.81;94368.50;10318717;28;1742;-80
2021/04/28 14:34:18;;;;;;;;;;;22.10;45.90;;;21.15;24.99;94356.53;10325216;28;1793;-80
2021/04/28 14:39:19;;;;;;;;;;;22.00;46.80;;;21.13;25.17;94356.91;10329740;28;1922;-80
2021/04/28 14:44:21;;;;;;;;;;;22.10;46.10;;;20.63;25.16;94358.28;10325999;28;2265;-78
2021/04/28 14:49:23;;;;;;;;;;;21.80;46.20;;;20.24;25.79;94350.38;10320722;28;1979;-79
2021/04/28 14:54:25;;;;;;;;;;;21.30;46.70;;;20.00;26.59;94354.31;10291913;28;2081;-79
2021/04/28 14:59:27;;;;;;;;;;;21.00;47.10;;;20.06;26.06;94341.16;10311154;28;1964;-82
2021/04/28 15:04:29;;;;;;;;;;;21.00;47.20;;;20.40;25.73;94337.31;10320655;28;1987;-80
2021/04/28 15:09:31;;;;;;;;;;;21.30;46.90;;;20.39;25.87;94335.75;10310537;28;1971;-82
2021/04/28 15:14:35;;;;;;;;;;;21.40;46.70;;;20.31;26.34;94342.28;10311008;28;1900;-82
2021/04/28 15:19:37;;;;;;;;;;;21.40;47.20;;;20.33;26.73;94337.22;10313979;28;2103;-83
2021/04/28 15:24:39;;;;;;;;;;;21.20;47.50;;;20.10;27.29;94336.50;10289743;28;2042;-82
2021/04/28 15:29:40;;;;;;;;;;;21.10;48.00;;;20.04;27.23;94330.59;10282863;28;2336;-81
2021/04/28 15:34:42;;;;;;;;;;;21.00;47.90;;;19.90;27.92;94331.16;10298953;28;2097;-82
2021/04/28 15:39:44;;;;;;;;;;;20.90;48.40;;;19.69;27.94;94330.88;10292584;28;2051;-81
2021/04/28 15:44:46;;;;;;;;;;;20.60;48.70;;;19.69;27.89;94330.88;10310870;28;2344;-85
2021/04/28 15:49:51;;;;;;;;;;;20.60;49.00;;;19.30;28.21;94331.00;10309309;28;1999;-85
2021/04/28 15:54:53;;;;;;;;;;;20.30;49.10;;;19.16;28.75;94322.59;10300001;28;2006;-84
2021/04/28 15:59:55;;;;;;;;;;;20.30;49.30;;;19.31;28.50;94327.13;10310972;28;1912;-84
2021/04/28 16:04:58;;;;;;;;;;;20.20;49.20;;;18.85;29.09;94326.31;10310167;28;1928;-85
2021/04/28 16:22:25;;;;;;;;;;;19.80;49.90;;;18.39;29.97;94319.97;10305066;28;1611;-83
2021/04/28 16:33:58;;;;;;;;;;;19.30;50.60;;;18.31;30.26;94313.56;10316533;28;1975;-86
2021/04/28 16:45:07;;;;;;;;;;;19.20;51.10;;;18.29;30.30;94304.97;10324239;28;2097;-83
2021/04/28 16:50:10;;;;;;;;;;;19.10;51.30;;;18.10;30.65;94303.03;10330779;28;1816;-82
2021/04/28 16:55:12;;;;;;;;;;;19.10;51.50;;;18.17;31.08;94318.72;10323335;28;1989;-85
2021/04/28 17:00:14;;;;;;;;;;;19.00;51.60;;;17.99;31.14;94302.03;10312815;28;2045;-84
2021/04/28 17:05:16;;;;;;;;;;;19.00;51.80;;;17.88;31.45;94304.53;10303090;28;1940;-84
2021/04/28 17:10:17;;;;;;;;;;;18.80;52.10;;;17.75;31.48;94293.00;10302060;28;1979;-82
2021/04/28 17:15:19;;;;;;;;;;;18.70;52.40;;;17.67;31.84;94293.94;10295512;28;2097;-84
2021/04/28 17:20:21;;;;;;;;;;;18.60;52.50;;;17.46;31.58;94290.72;10298255;28;1900;-83
2021/04/28 17:25:25;;;;;;;;;;;18.50;52.40;;;17.35;32.25;94290.47;10284597;28;1989;-83
2021/04/28 17:30:27;;;;;;;;;;;18.40;52.70;;;17.25;32.17;94291.81;10280952;28;1868;-83
2021/04/28 17:35:29;;;;;;;;;;;18.30;52.90;;;17.12;32.33;94294.97;10301057;28;1935;-82
2021/04/28 17:40:33;;;;;;;;;;;18.10;52.90;;;17.06;32.36;94293.66;10290437;28;2013;-82
2021/04/28 17:45:39;;;;;;;;;;;18.00;52.90;;;16.89;32.56;94294.78;10294448;28;1909;-83
2021/04/28 17:50:42;;;;;;;;;;;17.90;53.20;;;16.74;33.49;94299.84;10310151;28;1967;-84
2021/04/28 17:55:44;;;;;;;;;;;17.80;53.70;;;16.62;34.10;94296.38;10300842;28;1986;-83
2021/04/28 18:00:46;;;;;;;;;;;17.70;54.40;;;16.43;34.54;94295.13;10304736;28;2159;-84
2021/04/28 18:05:48;;;;;;;;;;;17.50;54.90;;;16.23;35.10;94300.75;10302410;28;2018;-84
2021/04/28 18:10:50;;;;;;;;;;;17.30;55.40;;;16.13;35.32;94302.00;10308076;28;2054;-82
2021/04/28 18:15:52;;;;;;;;;;;17.20;55.80;;;16.03;36.10;94303.31;10300515;28;1978;-83
2021/04/28 18:20:54;;;;;;;;;;;17.10;56.20;;;15.86;36.59;94301.63;10283872;28;2002;-83
2021/04/28 18:25:55;;;;;;;;;;;16.90;56.90;;;15.72;37.34;94300.44;10280422;28;2159;-82
2021/04/28 18:30:57;;;;;;;;;;;16.80;57.60;;;15.52;37.94;94302.88;10300974;28;2002;-84
2021/04/28 18:35:59;;;;;;;;;;;16.70;58.20;;;15.31;38.67;94302.25;10278096;28;2065;-82
2021/04/28 18:41:01;;;;;;;;;;;16.40;58.80;;;15.22;38.95;94307.00;10296787;28;1952;-85
2021/04/28 18:46:04;;;;;;;;;;;16.30;59.20;;;15.14;39.13;94309.47;10313809;28;1999;-83
2021/04/28 18:52:12;;;;;;;;;;;;;;;;;;;;;
2021/04/28 19:21:31;;;;;;;;;;;15.60;61.80;;;14.34;41.38;94312.53;10387127;28;1890;-83
2021/04/28 19:26:40;;;;;;;;;;;15.40;62.00;;;14.20;41.47;94311.25;10380276;28;1794;-82
2021/04/28 19:31:51;;;;;;;;;;;15.30;62.30;;;14.14;41.61;94304.47;10393427;28;1292;-83
2021/04/28 19:43:17;;;;;;;;;;;15.10;62.30;;;14.00;41.79;94310.94;10271102;28;1775;-84
2021/04/28 19:53:58;;;;;;;;;;;15.00;62.70;;;13.78;42.12;94306.63;10366257;28;1552;-84
2021/04/28 19:59:18;;;;;;;;;;;14.90;63.00;;;13.69;42.41;94303.22;10357908;28;1916;-85
2021/04/28 20:21:38;;;;;;;;;;;14.50;64.10;;;13.18;43.54;94298.91;10322633;28;1895;-83
2021/04/28 20:27:06;;;;;;;;;;;14.40;64.40;;;13.34;43.49;94293.75;10320612;28;1577;-84
2021/04/28 20:32:12;;;;;;;;;;;14.30;64.50;;;13.24;43.80;94286.84;10328094;28;1379;-83
2021/04/28 20:37:14;;;;;;;;;;;14.30;64.70;;;13.20;43.60;94286.69;10340287;28;1883;-83
2021/04/28 20:42:19;;;;;;;;;;;14.30;64.80;;;12.91;44.69;94284.72;10339155;28;1565;-84
2021/04/28 20:48:01;;;;;;;;;;;;;;;;;;;;;
2021/04/28 20:53:49;;;;;;;;;;;14.00;65.60;;;12.70;45.27;94291.97;10242355;29;1775;-81
2021/04/28 20:59:06;;;;;;;;;;;13.90;66.00;;;12.55;45.56;94287.88;10303268;28;1950;-85
2021/04/28 21:04:22;;;;;;;;;;;13.70;66.20;;;12.59;45.72;94294.19;10333351;28;1541;-83
2021/04/28 21:09:26;;;;;;;;;;;13.70;66.60;;;12.49;45.58;94285.69;10316574;28;1620;-81
2021/04/28 21:14:30;;;;;;;;;;;13.60;66.70;;;12.39;45.69;94290.28;10322958;28;1831;-84
2021/04/28 21:19:32;;;;;;;;;;;13.50;67.30;;;12.29;46.15;94285.25;10329550;28;2333;-85
2021/04/28 21:24:35;;;;;;;;;;;13.40;67.50;;;12.15;46.84;94290.84;10332634;28;2408;-86
2021/04/28 21:29:37;;;;;;;;;;;13.30;67.80;;;12.12;47.62;94285.28;10355562;28;2315;-86
2021/04/28 21:34:39;;;;;;;;;;;13.20;68.30;;;12.06;47.63;94278.47;10337036;28;2197;-84
2021/04/28 21:39:41;;;;;;;;;;;13.20;68.70;;;12.02;47.53;94280.22;10311666;28;2280;-85
2021/04/28 21:44:43;;;;;;;;;;;13.10;68.90;;;11.90;48.38;94281.66;10314833;28;2271;-84
2021/04/28 21:49:45;;;;;;;;;;;13.10;69.30;;;11.75;48.92;94287.47;10332574;28;2260;-85
2021/04/28 21:54:47;;;;;;;;;;;13.00;69.80;;;11.62;49.28;94288.44;10314148;28;2294;-84
2021/04/28 21:59:50;;;;;;;;;;;12.80;70.20;;;11.58;49.74;94287.50;10328080;28;2388;-84
2021/04/28 22:04:52;;;;;;;;;;;12.70;70.90;;;11.47;50.06;94286.22;10319645;28;1890;-82
2021/04/28 22:10:14;;;;;;;;;;;12.70;71.00;;;11.44;50.36;94301.06;10326049;28;1988;-83
2021/04/28 22:15:25;;;;;;;;;;;12.60;71.40;;;11.34;50.81;94296.00;10314996;28;2111;-85
2021/04/28 22:20:27;;;;;;;;;;;12.50;71.70;;;11.28;50.95;94294.56;10313779;28;2417;-84
2021/04/28 22:25:29;;;;;;;;;;;12.40;72.00;;;11.23;51.18;94302.78;10345561;28;2120;-86
2021/04/28 22:30:31;;;;;;;;;;;12.40;72.40;;;11.19;51.30;94301.81;10359636;28;2342;-86
2021/04/28 22:35:33;;;;;;;;;;;12.30;72.70;;;11.20;51.50;94303.41;10361457;28;2258;-84
2021/04/28 22:40:35;;;;;;;;;;;12.30;73.10;;;11.10;52.11;94309.88;10365813;28;2274;-85
2021/04/28 22:45:37;;;;;;;;;;;12.30;73.40;;;11.29;51.73;94318.47;10347476;28;2247;-86
2021/04/28 22:50:39;;;;;;;;;;;12.30;73.40;;;11.33;52.23;94322.13;10333262;28;2277;-84
2021/04/28 22:55:41;;;;;;;;;;;12.40;74.20;;;11.30;53.56;94338.09;10325272;28;2320;-84
2021/04/28 23:00:43;;;;;;;;;;;12.40;74.90;;;11.25;53.58;94357.84;10340962;28;2470;-84
2021/04/28 23:05:45;;;;;;;;;;;12.30;75.70;;;11.25;53.81;94395.50;10332312;28;2330;-83
2021/04/28 23:10:47;;;;;;;;;;;12.30;76.20;;;11.13;53.93;94375.66;10331466;28;2259;-83
2021/04/28 23:15:49;;;;;;;;;;;12.20;76.10;;;11.03;53.52;94360.63;10348033;28;2337;-83
2021/04/28 23:20:54;;;;;;;;;;;12.10;76.10;;;10.99;53.55;94359.66;10322387;28;2411;-83
2021/04/28 23:26:00;;;;;;;;;;;14.10;77.00;;;11.00;53.24;94366.59;10339132;28;2290;-86
2021/04/28 23:31:02;;;;;;;;;;;12.00;75.70;;;11.06;53.08;94382.28;10352960;28;2468;-83
2021/04/28 23:36:04;;;;;;;;;;;12.10;75.90;;;11.04;53.94;94397.16;10351559;28;2312;-84
2021/04/28 23:41:06;;;;;;;;;;;12.10;76.50;;;11.04;55.72;94397.16;10357004;28;2381;-84
2021/04/28 23:46:08;;;;;;;;;;;12.10;78.20;;;11.16;56.74;94393.88;10365885;28;2302;-82
2021/04/28 23:51:10;;;;;;;;;;;12.10;79.60;;;11.19;57.60;94399.44;10348285;28;2212;-83
2021/04/28 23:56:12;;;;;;;;;;;12.10;80.10;;;11.23;57.89;94399.63;10384677;28;2332;-85
